sensor_id;sensor_type;location;lat;lon;timestamp;pressure;altitude;pressure_sealevel;temperature
81319;BMP280;74078;48.420;14.828;2024-03-08T00:02:02;92590.53;;;0.44
81319;BMP280;74078;48.420;14.828;2024-03-08T00:04:28;92594.09;;;0.43
81319;BMP280;74078;48.420;14.828;2024-03-08T00:06:53;92600.53;;;0.40
81319;BMP280;74078;48.420;14.828;2024-03-08T00:09:18;92597.31;;;0.29
81319;BMP280;74078;48.420;14.828;2024-03-08T00:11:43;92601.25;;;0.34
81319;BMP280;74078;48.420;14.828;2024-03-08T00:14:09;92596.25;;;0.44
81319;BMP280;74078;48.420;14.828;2024-03-08T00:16:34;92598.41;;;0.53
81319;BMP280;74078;48.420;14.828;2024-03-08T00:19:00;92598.41;;;0.57
81319;BMP280;74078;48.420;14.828;2024-03-08T00:21:25;92594.09;;;0.36
81319;BMP280;74078;48.420;14.828;2024-03-08T00:23:52;92592.69;;;0.38
81319;BMP280;74078;48.420;14.828;2024-03-08T00:26:19;92595.88;;;0.25
81319;BMP280;74078;48.420;14.828;2024-03-08T00:28:44;92592.66;;;0.14
81319;BMP280;74078;48.420;14.828;2024-03-08T00:31:09;92593.38;;;0.11
81319;BMP280;74078;48.420;14.828;2024-03-08T00:33:34;92596.59;;;0.08
81319;BMP280;74078;48.420;14.828;2024-03-08T00:35:59;92591.94;;;0.10
81319;BMP280;74078;48.420;14.828;2024-03-08T00:38:25;92585.50;;;0.09
81319;BMP280;74078;48.420;14.828;2024-03-08T00:40:50;92585.16;;;0.14
81319;BMP280;74078;48.420;14.828;2024-03-08T00:43:15;92581.94;;;0.20
81319;BMP280;74078;48.420;14.828;2024-03-08T00:45:40;92580.50;;;0.09
81319;BMP280;74078;48.420;14.828;2024-03-08T00:48:07;92571.91;;;-0.05
81319;BMP280;74078;48.420;14.828;2024-03-08T00:50:33;92569.03;;;-0.21
81319;BMP280;74078;48.420;14.828;2024-03-08T00:52:58;92567.25;;;-0.17
81319;BMP280;74078;48.420;14.828;2024-03-08T00:55:24;92566.19;;;-0.09
81319;BMP280;74078;48.420;14.828;2024-03-08T00:57:50;92556.94;;;-0.12
81319;BMP280;74078;48.420;14.828;2024-03-08T01:00:15;92554.06;;;-0.10
81319;BMP280;74078;48.420;14.828;2024-03-08T01:02:41;92548.34;;;-0.18
81319;BMP280;74078;48.420;14.828;2024-03-08T01:05:07;92540.50;;;-0.20
81319;BMP280;74078;48.420;14.828;2024-03-08T01:07:33;92541.22;;;-0.12
81319;BMP280;74078;48.420;14.828;2024-03-08T01:09:58;92527.63;;;-0.22
81319;BMP280;74078;48.420;14.828;2024-03-08T01:12:24;92525.13;;;-0.22
81319;BMP280;74078;48.420;14.828;2024-03-08T01:14:49;92519.41;;;-0.26
81319;BMP280;74078;48.420;14.828;2024-03-08T01:17:14;92512.31;;;-0.13
81319;BMP280;74078;48.420;14.828;2024-03-08T01:19:40;92513.00;;;-0.23
81319;BMP280;74078;48.420;14.828;2024-03-08T01:22:05;92511.91;;;-0.29
81319;BMP280;74078;48.420;14.828;2024-03-08T01:24:30;92506.91;;;-0.26
81319;BMP280;74078;48.420;14.828;2024-03-08T01:26:55;92506.91;;;-0.29
81319;BMP280;74078;48.420;14.828;2024-03-08T01:29:21;92495.16;;;-0.29
81319;BMP280;74078;48.420;14.828;2024-03-08T01:31:46;92495.88;;;-0.28
81319;BMP280;74078;48.420;14.828;2024-03-08T01:34:11;92501.19;;;-0.30
81319;BMP280;74078;48.420;14.828;2024-03-08T01:36:36;92505.47;;;-0.27
81319;BMP280;74078;48.420;14.828;2024-03-08T01:39:02;92497.31;;;-0.24
81319;BMP280;74078;48.420;14.828;2024-03-08T01:41:28;92496.16;;;-0.40
81319;BMP280;74078;48.420;14.828;2024-03-08T01:43:54;92503.69;;;-0.30
81319;BMP280;74078;48.420;14.828;2024-03-08T01:46:20;92507.31;;;-0.13
81319;BMP280;74078;48.420;14.828;2024-03-08T01:48:47;92504.09;;;-0.17
81319;BMP280;74078;48.420;14.828;2024-03-08T01:51:12;92512.31;;;-0.13
81319;BMP280;74078;48.420;14.828;2024-03-08T01:53:39;92516.94;;;-0.12
81319;BMP280;74078;48.420;14.828;2024-03-08T01:56:05;92519.06;;;-0.21
81319;BMP280;74078;48.420;14.828;2024-03-08T01:58:31;92511.91;;;-0.29
81319;BMP280;74078;48.420;14.828;2024-03-08T02:00:58;92504.06;;;-0.21
81319;BMP280;74078;48.420;14.828;2024-03-08T02:03:23;92501.97;;;-0.12
81319;BMP280;74078;48.420;14.828;2024-03-08T02:05:49;92508.03;;;-0.13
81319;BMP280;74078;48.420;14.828;2024-03-08T02:08:14;92497.69;;;-0.01
81319;BMP280;74078;48.420;14.828;2024-03-08T02:10:40;92494.13;;;0.08
81319;BMP280;74078;48.420;14.828;2024-03-08T02:13:06;92493.41;;;0.00
81319;BMP280;74078;48.420;14.828;2024-03-08T02:18:16;92486.97;;;-0.08
81319;BMP280;74078;48.420;14.828;2024-03-08T02:20:42;92489.09;;;-0.21
81319;BMP280;74078;48.420;14.828;2024-03-08T02:23:07;92488.38;;;-0.25
81319;BMP280;74078;48.420;14.828;2024-03-08T02:25:33;92481.94;;;-0.19
81319;BMP280;74078;48.420;14.828;2024-03-08T02:27:58;92483.75;;;-0.16
81319;BMP280;74078;48.420;14.828;2024-03-08T02:30:23;92463.75;;;-0.23
81319;BMP280;74078;48.420;14.828;2024-03-08T02:32:50;92472.31;;;-0.24
81319;BMP280;74078;48.420;14.828;2024-03-08T02:35:15;92481.59;;;-0.10
81319;BMP280;74078;48.420;14.828;2024-03-08T02:37:41;92472.31;;;-0.03
81319;BMP280;74078;48.420;14.828;2024-03-08T02:40:06;92468.41;;;-0.11
81319;BMP280;74078;48.420;14.828;2024-03-08T02:42:32;92472.31;;;0.01
81319;BMP280;74078;48.420;14.828;2024-03-08T02:44:57;92463.41;;;0.04
81319;BMP280;74078;48.420;14.828;2024-03-08T02:47:23;92459.13;;;-0.07
81319;BMP280;74078;48.420;14.828;2024-03-08T02:49:48;92461.28;;;-0.09
81319;BMP280;74078;48.420;14.828;2024-03-08T02:52:15;92461.63;;;-0.24
81319;BMP280;74078;48.420;14.828;2024-03-08T02:54:41;92445.88;;;-0.39
81319;BMP280;74078;48.420;14.828;2024-03-08T02:57:06;92459.84;;;-0.20
81319;BMP280;74078;48.420;14.828;2024-03-08T02:59:32;92460.19;;;-0.22
81319;BMP280;74078;48.420;14.828;2024-03-08T03:01:58;92457.28;;;-0.38
81319;BMP280;74078;48.420;14.828;2024-03-08T03:04:25;92459.13;;;-0.28
81319;BMP280;74078;48.420;14.828;2024-03-08T03:06:51;92456.22;;;-0.33
81319;BMP280;74078;48.420;14.828;2024-03-08T03:09:17;92460.19;;;-0.25
81319;BMP280;74078;48.420;14.828;2024-03-08T03:11:49;92459.84;;;-0.27
81319;BMP280;74078;48.420;14.828;2024-03-08T03:14:14;92464.78;;;-0.31
81319;BMP280;74078;48.420;14.828;2024-03-08T03:16:41;92458.38;;;-0.39
81319;BMP280;74078;48.420;14.828;2024-03-08T03:19:09;92467.66;;;-0.29
81319;BMP280;74078;48.420;14.828;2024-03-08T03:21:35;92463.41;;;-0.28
81319;BMP280;74078;48.420;14.828;2024-03-08T03:24:03;92462.69;;;-0.25
81319;BMP280;74078;48.420;14.828;2024-03-08T03:26:36;92461.63;;;-0.28
81319;BMP280;74078;48.420;14.828;2024-03-08T03:29:07;92460.91;;;-0.11
81319;BMP280;74078;48.420;14.828;2024-03-08T03:31:36;92454.47;;;-0.15
81319;BMP280;74078;48.420;14.828;2024-03-08T03:34:03;92457.34;;;-0.17
81319;BMP280;74078;48.420;14.828;2024-03-08T03:36:30;92447.34;;;-0.17
81319;BMP280;74078;48.420;14.828;2024-03-08T03:38:57;92452.69;;;-0.25
81319;BMP280;74078;48.420;14.828;2024-03-08T03:41:44;92451.97;;;-0.19
81319;BMP280;74078;48.420;14.828;2024-03-08T03:44:14;92445.19;;;-0.15
81319;BMP280;74078;48.420;14.828;2024-03-08T03:46:44;92445.91;;;-0.18
81319;BMP280;74078;48.420;14.828;2024-03-08T03:49:10;92440.91;;;-0.21
81319;BMP280;74078;48.420;14.828;2024-03-08T03:51:36;92440.91;;;-0.25
81319;BMP280;74078;48.420;14.828;2024-03-08T03:54:02;92437.69;;;-0.25
81319;BMP280;74078;48.420;14.828;2024-03-08T03:56:29;92433.41;;;-0.25
81319;BMP280;74078;48.420;14.828;2024-03-08T03:58:59;92437.28;;;-0.34
81319;BMP280;74078;48.420;14.828;2024-03-08T04:01:28;92441.25;;;-0.30
81319;BMP280;74078;48.420;14.828;2024-03-08T04:03:55;92439.06;;;-0.49
81319;BMP280;74078;48.420;14.828;2024-03-08T04:06:21;92439.78;;;-0.34
81319;BMP280;74078;48.420;14.828;2024-03-08T04:08:49;92442.63;;;-0.57
81319;BMP280;74078;48.420;14.828;2024-03-08T04:11:15;92434.09;;;-0.38
81319;BMP280;74078;48.420;14.828;2024-03-08T04:13:42;92430.91;;;-0.39
81319;BMP280;74078;48.420;14.828;2024-03-08T04:16:09;92442.69;;;-0.29
81319;BMP280;74078;48.420;14.828;2024-03-08T04:18:37;92435.19;;;-0.25
81319;BMP280;74078;48.420;14.828;2024-03-08T04:21:04;92429.47;;;-0.33
81319;BMP280;74078;48.420;14.828;2024-03-08T04:23:34;92440.56;;;-0.23
81319;BMP280;74078;48.420;14.828;2024-03-08T04:26:03;92433.41;;;-0.25
81319;BMP280;74078;48.420;14.828;2024-03-08T04:28:31;92428.06;;;-0.27
81319;BMP280;74078;48.420;14.828;2024-03-08T04:30:57;92429.88;;;-0.27
81319;BMP280;74078;48.420;14.828;2024-03-08T04:33:26;92425.94;;;-0.28
81319;BMP280;74078;48.420;14.828;2024-03-08T04:35:52;92421.25;;;-0.33
81319;BMP280;74078;48.420;14.828;2024-03-08T04:38:18;92423.03;;;-0.37
81319;BMP280;74078;48.420;14.828;2024-03-08T04:40:45;92410.53;;;-0.44
81319;BMP280;74078;48.420;14.828;2024-03-08T04:43:11;92423.03;;;-0.52
81319;BMP280;74078;48.420;14.828;2024-03-08T04:45:38;92424.78;;;-0.59
81319;BMP280;74078;48.420;14.828;2024-03-08T04:48:04;92421.97;;;-0.43
81319;BMP280;74078;48.420;14.828;2024-03-08T04:50:31;92418.38;;;-0.53
81319;BMP280;74078;48.420;14.828;2024-03-08T04:52:57;92414.81;;;-0.56
81319;BMP280;74078;48.420;14.828;2024-03-08T04:55:24;92420.16;;;-0.54
81319;BMP280;74078;48.420;14.828;2024-03-08T04:57:50;92415.88;;;-0.67
81319;BMP280;74078;48.420;14.828;2024-03-08T05:00:17;92417.66;;;-0.64
81319;BMP280;74078;48.420;14.828;2024-03-08T05:02:43;92420.88;;;-0.57
81319;BMP280;74078;48.420;14.828;2024-03-08T05:05:09;92413.72;;;-0.65
81319;BMP280;74078;48.420;14.828;2024-03-08T05:07:39;92416.97;;;-0.54
81319;BMP280;74078;48.420;14.828;2024-03-08T05:10:06;92424.81;;;-0.41
81319;BMP280;74078;48.420;14.828;2024-03-08T05:12:33;92424.09;;;-0.46
81319;BMP280;74078;48.420;14.828;2024-03-08T05:14:59;92424.09;;;-0.49
81319;BMP280;74078;48.420;14.828;2024-03-08T05:17:29;92421.59;;;-0.46
81319;BMP280;74078;48.420;14.828;2024-03-08T05:19:55;92414.47;;;-0.43
81319;BMP280;74078;48.420;14.828;2024-03-08T05:22:22;92419.81;;;-0.45
81319;BMP280;74078;48.420;14.828;2024-03-08T05:24:48;92421.97;;;-0.47
81319;BMP280;74078;48.420;14.828;2024-03-08T05:27:15;92414.09;;;-0.38
81319;BMP280;74078;48.420;14.828;2024-03-08T05:29:41;92408.41;;;-0.39
81319;BMP280;74078;48.420;14.828;2024-03-08T05:32:08;92416.59;;;-0.38
81319;BMP280;74078;48.420;14.828;2024-03-08T05:34:35;92416.97;;;-0.40
81319;BMP280;74078;48.420;14.828;2024-03-08T05:37:02;92417.31;;;-0.38
81319;BMP280;74078;48.420;14.828;2024-03-08T05:39:28;92419.16;;;-0.28
81319;BMP280;74078;48.420;14.828;2024-03-08T05:41:58;92422.00;;;-0.22
81319;BMP280;74078;48.420;14.828;2024-03-08T05:44:25;92425.94;;;-0.25
81319;BMP280;74078;48.420;14.828;2024-03-08T05:46:54;92416.97;;;-0.33
81319;BMP280;74078;48.420;14.828;2024-03-08T05:49:21;92419.47;;;-0.33
81319;BMP280;74078;48.420;14.828;2024-03-08T05:51:47;92422.00;;;-0.19
81319;BMP280;74078;48.420;14.828;2024-03-08T05:54:14;92415.22;;;-0.01
81319;BMP280;74078;48.420;14.828;2024-03-08T05:56:40;92417.00;;;0.17
81319;BMP280;74078;48.420;14.828;2024-03-08T05:59:11;92415.56;;;0.23
81319;BMP280;74078;48.420;14.828;2024-03-08T06:01:38;92409.06;;;0.36
81319;BMP280;74078;48.420;14.828;2024-03-08T06:04:06;92406.16;;;0.55
81319;BMP280;74078;48.420;14.828;2024-03-08T06:06:33;92406.88;;;0.59
81319;BMP280;74078;48.420;14.828;2024-03-08T06:08:59;92408.66;;;0.55
81319;BMP280;74078;48.420;14.828;2024-03-08T06:11:26;92400.16;;;0.42
81319;BMP280;74078;48.420;14.828;2024-03-08T06:13:58;92402.22;;;0.54
81319;BMP280;74078;48.420;14.828;2024-03-08T06:16:28;92408.66;;;0.55
81319;BMP280;74078;48.420;14.828;2024-03-08T06:18:55;92403.69;;;0.52
81319;BMP280;74078;48.420;14.828;2024-03-08T06:21:22;92407.94;;;0.55
81319;BMP280;74078;48.420;14.828;2024-03-08T06:23:54;92408.31;;;0.57
81319;BMP280;74078;48.420;14.828;2024-03-08T06:26:21;92418.66;;;0.55
81319;BMP280;74078;48.420;14.828;2024-03-08T06:28:48;92421.84;;;0.70
81319;BMP280;74078;48.420;14.828;2024-03-08T06:31:17;92415.81;;;0.57
81319;BMP280;74078;48.420;14.828;2024-03-08T06:33:43;92422.66;;;0.42
81319;BMP280;74078;48.420;14.828;2024-03-08T06:36:10;92414.75;;;0.50
81319;BMP280;74078;48.420;14.828;2024-03-08T06:38:39;92424.75;;;0.47
81319;BMP280;74078;48.420;14.828;2024-03-08T06:41:11;92404.75;;;0.47
81319;BMP280;74078;48.420;14.828;2024-03-08T06:43:44;92411.91;;;0.52
81319;BMP280;74078;48.420;14.828;2024-03-08T06:46:11;92423.66;;;0.62
81319;BMP280;74078;48.420;14.828;2024-03-08T06:48:40;92420.47;;;0.55
81319;BMP280;74078;48.420;14.828;2024-03-08T06:51:06;92420.84;;;0.46
81319;BMP280;74078;48.420;14.828;2024-03-08T06:53:33;92416.16;;;0.55
81319;BMP280;74078;48.420;14.828;2024-03-08T06:56:08;92426.91;;;0.52
81319;BMP280;74078;48.420;14.828;2024-03-08T06:58:37;92413.69;;;0.44
81319;BMP280;74078;48.420;14.828;2024-03-08T07:01:03;92421.84;;;0.70
81319;BMP280;74078;48.420;14.828;2024-03-08T07:03:33;92415.44;;;0.65
81319;BMP280;74078;48.420;14.828;2024-03-08T07:06:00;92430.47;;;0.65
81319;BMP280;74078;48.420;14.828;2024-03-08T07:08:28;92424.75;;;0.61
81319;BMP280;74078;48.420;14.828;2024-03-08T07:10:55;92425.47;;;0.51
81319;BMP280;74078;48.420;14.828;2024-03-08T07:13:23;92421.91;;;0.45
81319;BMP280;74078;48.420;14.828;2024-03-08T07:15:49;92415.03;;;0.74
81319;BMP280;74078;48.420;14.828;2024-03-08T07:18:17;92409.66;;;0.79
81319;BMP280;74078;48.420;14.828;2024-03-08T07:20:43;92411.41;;;0.96
81319;BMP280;74078;48.420;14.828;2024-03-08T07:23:10;92418.50;;;1.12
81319;BMP280;74078;48.420;14.828;2024-03-08T07:25:36;92418.19;;;1.61
81319;BMP280;74078;48.420;14.828;2024-03-08T07:28:04;92422.41;;;2.16
81319;BMP280;74078;48.420;14.828;2024-03-08T07:30:31;92409.72;;;1.92
81319;BMP280;74078;48.420;14.828;2024-03-08T07:33:10;92401.31;;;2.10
81319;BMP280;74078;48.420;14.828;2024-03-08T07:35:39;92399.50;;;2.81
81319;BMP280;74078;48.420;14.828;2024-03-08T07:38:06;92393.28;;;2.25
81319;BMP280;74078;48.420;14.828;2024-03-08T07:40:37;92398.81;;;2.10
81319;BMP280;74078;48.420;14.828;2024-03-08T07:43:10;92397.38;;;2.76
81319;BMP280;74078;48.420;14.828;2024-03-08T07:45:37;92398.44;;;3.06
81319;BMP280;74078;48.420;14.828;2024-03-08T07:48:04;92379.31;;;2.88
81319;BMP280;74078;48.420;14.828;2024-03-08T07:50:38;92390.63;;;3.00
81319;BMP280;74078;48.420;14.828;2024-03-08T07:53:05;92385.84;;;2.82
81319;BMP280;74078;48.420;14.828;2024-03-08T07:55:32;92393.13;;;2.73
81319;BMP280;74078;48.420;14.828;2024-03-08T07:57:59;92390.94;;;2.75
81319;BMP280;74078;48.420;14.828;2024-03-08T08:00:26;92389.78;;;3.10
81319;BMP280;74078;48.420;14.828;2024-03-08T08:02:53;92384.56;;;2.67
81319;BMP280;74078;48.420;14.828;2024-03-08T08:05:19;92381.13;;;2.58
81319;BMP280;74078;48.420;14.828;2024-03-08T08:07:46;92381.50;;;2.56
81319;BMP280;74078;48.420;14.828;2024-03-08T08:10:13;92389.94;;;2.99
81319;BMP280;74078;48.420;14.828;2024-03-08T08:12:48;92392.25;;;2.87
81319;BMP280;74078;48.420;14.828;2024-03-08T08:15:14;92396.63;;;3.33
81319;BMP280;74078;48.420;14.828;2024-03-08T08:17:44;92390.03;;;3.69
81319;BMP280;74078;48.420;14.828;2024-03-08T08:20:11;92398.00;;;4.07
81319;BMP280;74078;48.420;14.828;2024-03-08T08:22:41;92387.63;;;4.05
81319;BMP280;74078;48.420;14.828;2024-03-08T08:25:09;92389.50;;;4.01
81319;BMP280;74078;48.420;14.828;2024-03-08T08:27:38;92380.56;;;4.55
81319;BMP280;74078;48.420;14.828;2024-03-08T08:30:10;92378.19;;;4.48
81319;BMP280;74078;48.420;14.828;2024-03-08T08:32:37;92377.75;;;4.53
81319;BMP280;74078;48.420;14.828;2024-03-08T08:35:05;92376.53;;;4.42
81319;BMP280;74078;48.420;14.828;2024-03-08T08:37:34;92391.25;;;4.43
81319;BMP280;74078;48.420;14.828;2024-03-08T08:40:03;92381.44;;;4.29
81319;BMP280;74078;48.420;14.828;2024-03-08T08:42:34;92376.78;;;4.83
81319;BMP280;74078;48.420;14.828;2024-03-08T08:45:01;92376.09;;;4.08
81319;BMP280;74078;48.420;14.828;2024-03-08T08:47:27;92370.88;;;4.54
81319;BMP280;74078;48.420;14.828;2024-03-08T08:49:54;92365.38;;;4.95
81319;BMP280;74078;48.420;14.828;2024-03-08T08:52:20;92370.06;;;4.01
81319;BMP280;74078;48.420;14.828;2024-03-08T08:54:46;92363.75;;;3.93
81319;BMP280;74078;48.420;14.828;2024-03-08T08:57:18;92363.44;;;4.50
81319;BMP280;74078;48.420;14.828;2024-03-08T08:59:45;92360.06;;;4.18
81319;BMP280;74078;48.420;14.828;2024-03-08T09:02:11;92357.69;;;4.86
81319;BMP280;74078;48.420;14.828;2024-03-08T09:04:38;92359.31;;;4.92
81319;BMP280;74078;48.420;14.828;2024-03-08T09:07:05;92357.63;;;5.05
81319;BMP280;74078;48.420;14.828;2024-03-08T09:09:34;92351.88;;;4.53
81319;BMP280;74078;48.420;14.828;2024-03-08T09:12:01;92340.19;;;4.79
81319;BMP280;74078;48.420;14.828;2024-03-08T09:14:28;92345.31;;;5.07
81319;BMP280;74078;48.420;14.828;2024-03-08T09:16:55;92357.06;;;5.14
81319;BMP280;74078;48.420;14.828;2024-03-08T09:19:21;92350.53;;;5.00
81319;BMP280;74078;48.420;14.828;2024-03-08T09:21:51;92339.78;;;5.45
81319;BMP280;74078;48.420;14.828;2024-03-08T09:24:18;92346.66;;;5.12
81319;BMP280;74078;48.420;14.828;2024-03-08T09:26:44;92347.59;;;5.34
81319;BMP280;74078;48.420;14.828;2024-03-08T09:29:10;92345.06;;;5.50
81319;BMP280;74078;48.420;14.828;2024-03-08T09:31:37;92355.63;;;6.03
81319;BMP280;74078;48.420;14.828;2024-03-08T09:34:06;92346.69;;;5.57
81319;BMP280;74078;48.420;14.828;2024-03-08T09:36:34;92339.25;;;5.82
81319;BMP280;74078;48.420;14.828;2024-03-08T09:39:00;92327.28;;;4.77
81319;BMP280;74078;48.420;14.828;2024-03-08T09:41:27;92333.72;;;5.26
81319;BMP280;74078;48.420;14.828;2024-03-08T09:43:54;92344.31;;;5.95
81319;BMP280;74078;48.420;14.828;2024-03-08T09:46:21;92332.69;;;6.13
81319;BMP280;74078;48.420;14.828;2024-03-08T09:48:48;92329.63;;;5.77
81319;BMP280;74078;48.420;14.828;2024-03-08T09:51:14;92334.91;;;6.37
81319;BMP280;74078;48.420;14.828;2024-03-08T09:53:41;92332.72;;;6.39
81319;BMP280;74078;48.420;14.828;2024-03-08T09:56:13;92326.63;;;6.24
81319;BMP280;74078;48.420;14.828;2024-03-08T09:58:40;92326.00;;;6.19
81319;BMP280;74078;48.420;14.828;2024-03-08T10:01:24;92328.56;;;6.70
81319;BMP280;74078;48.420;14.828;2024-03-08T10:03:52;92322.91;;;6.91
81319;BMP280;74078;48.420;14.828;2024-03-08T10:06:22;92327.13;;;6.94
81319;BMP280;74078;48.420;14.828;2024-03-08T10:08:49;92314.22;;;7.26
81319;BMP280;74078;48.420;14.828;2024-03-08T10:11:17;92310.06;;;7.32
81319;BMP280;74078;48.420;14.828;2024-03-08T10:13:44;92314.00;;;7.33
81319;BMP280;74078;48.420;14.828;2024-03-08T10:16:12;92315.78;;;7.46
81319;BMP280;74078;48.420;14.828;2024-03-08T10:18:38;92301.81;;;7.41
81319;BMP280;74078;48.420;14.828;2024-03-08T10:21:07;92312.88;;;8.21
81319;BMP280;74078;48.420;14.828;2024-03-08T10:23:39;92314.53;;;8.15
81319;BMP280;74078;48.420;14.828;2024-03-08T10:26:11;92301.25;;;7.80
81319;BMP280;74078;48.420;14.828;2024-03-08T10:28:41;92308.09;;;8.23
81319;BMP280;74078;48.420;14.828;2024-03-08T10:31:08;92307.03;;;9.19
81319;BMP280;74078;48.420;14.828;2024-03-08T10:33:35;92305.13;;;8.56
81319;BMP280;74078;48.420;14.828;2024-03-08T10:36:03;92304.69;;;8.17
81319;BMP280;74078;48.420;14.828;2024-03-08T10:38:38;92303.78;;;8.82
81319;BMP280;74078;48.420;14.828;2024-03-08T10:41:09;92300.00;;;9.04
81319;BMP280;74078;48.420;14.828;2024-03-08T10:43:46;92295.06;;;9.01
81319;BMP280;74078;48.420;14.828;2024-03-08T10:49:08;92295.34;;;8.94
81319;BMP280;74078;48.420;14.828;2024-03-08T10:51:38;92290.00;;;9.19
81319;BMP280;74078;48.420;14.828;2024-03-08T10:54:07;92300.13;;;9.55
81319;BMP280;74078;48.420;14.828;2024-03-08T10:56:35;92302.22;;;9.75
81319;BMP280;74078;48.420;14.828;2024-03-08T10:59:02;92295.38;;;9.21
81319;BMP280;74078;48.420;14.828;2024-03-08T11:01:30;92290.84;;;9.25
81319;BMP280;74078;48.420;14.828;2024-03-08T11:03:56;92282.50;;;9.70
81319;BMP280;74078;48.420;14.828;2024-03-08T11:08:51;92283.63;;;10.11
81319;BMP280;74078;48.420;14.828;2024-03-08T11:11:38;92277.53;;;10.50
81319;BMP280;74078;48.420;14.828;2024-03-08T11:14:42;92289.53;;;9.66
81319;BMP280;74078;48.420;14.828;2024-03-08T11:16:54;92283.38;;;10.89
81319;BMP280;74078;48.420;14.828;2024-03-08T11:21:46;92285.13;;;11.36
81319;BMP280;74078;48.420;14.828;2024-03-08T11:24:13;92278.91;;;11.66
81319;BMP280;74078;48.420;14.828;2024-03-08T11:26:42;92273.78;;;11.22
81319;BMP280;74078;48.420;14.828;2024-03-08T11:32:12;92265.94;;;10.97
81319;BMP280;74078;48.420;14.828;2024-03-08T11:34:41;92261.00;;;11.75
81319;BMP280;74078;48.420;14.828;2024-03-08T11:37:11;92255.56;;;11.24
81319;BMP280;74078;48.420;14.828;2024-03-08T11:39:39;92258.94;;;9.70
81319;BMP280;74078;48.420;14.828;2024-03-08T11:42:06;92263.59;;;10.46
81319;BMP280;74078;48.420;14.828;2024-03-08T11:44:32;92248.94;;;10.64
81319;BMP280;74078;48.420;14.828;2024-03-08T11:46:58;92248.63;;;11.68
81319;BMP280;74078;48.420;14.828;2024-03-08T11:49:28;92248.03;;;11.44
81319;BMP280;74078;48.420;14.828;2024-03-08T11:51:54;92246.69;;;11.63
81319;BMP280;74078;48.420;14.828;2024-03-08T11:54:21;92245.91;;;10.51
81319;BMP280;74078;48.420;14.828;2024-03-08T11:56:51;92248.84;;;11.12
81319;BMP280;74078;48.420;14.828;2024-03-08T11:59:20;92242.88;;;10.85
81319;BMP280;74078;48.420;14.828;2024-03-08T12:01:57;92230.97;;;11.21
81319;BMP280;74078;48.420;14.828;2024-03-08T12:04:24;92247.59;;;10.93
81319;BMP280;74078;48.420;14.828;2024-03-08T12:06:50;92239.91;;;11.89
81319;BMP280;74078;48.420;14.828;2024-03-08T12:09:17;92243.25;;;10.69
81319;BMP280;74078;48.420;14.828;2024-03-08T12:11:47;92247.31;;;10.52
81319;BMP280;74078;48.420;14.828;2024-03-08T12:14:14;92227.66;;;11.44
81319;BMP280;74078;48.420;14.828;2024-03-08T12:16:44;92232.34;;;11.80
81319;BMP280;74078;48.420;14.828;2024-03-08T12:19:10;92227.44;;;11.04
81319;BMP280;74078;48.420;14.828;2024-03-08T12:21:37;92223.75;;;10.90
81319;BMP280;74078;48.420;14.828;2024-03-08T12:24:11;92224.09;;;11.85
81319;BMP280;74078;48.420;14.828;2024-03-08T12:26:42;92225.53;;;12.06
81319;BMP280;74078;48.420;14.828;2024-03-08T12:29:22;92227.59;;;12.43
81319;BMP280;74078;48.420;14.828;2024-03-08T12:31:53;92225.19;;;11.06
81319;BMP280;74078;48.420;14.828;2024-03-08T12:34:21;92228.44;;;11.50
81319;BMP280;74078;48.420;14.828;2024-03-08T12:36:48;92226.84;;;11.09
81319;BMP280;74078;48.420;14.828;2024-03-08T12:39:16;92221.69;;;11.62
81319;BMP280;74078;48.420;14.828;2024-03-08T12:41:43;92234.84;;;10.54
81319;BMP280;74078;48.420;14.828;2024-03-08T12:44:10;92226.44;;;10.48
81319;BMP280;74078;48.420;14.828;2024-03-08T12:46:37;92216.31;;;10.63
81319;BMP280;74078;48.420;14.828;2024-03-08T12:49:09;92222.66;;;11.64
81319;BMP280;74078;48.420;14.828;2024-03-08T12:51:35;92227.22;;;11.45
81319;BMP280;74078;48.420;14.828;2024-03-08T12:54:05;92226.81;;;12.16
81319;BMP280;74078;48.420;14.828;2024-03-08T12:56:37;92230.88;;;12.08
81319;BMP280;74078;48.420;14.828;2024-03-08T12:59:04;92217.78;;;12.56
81319;BMP280;74078;48.420;14.828;2024-03-08T13:01:35;92219.47;;;11.11
81319;BMP280;74078;48.420;14.828;2024-03-08T13:04:05;92212.91;;;11.33
81319;BMP280;74078;48.420;14.828;2024-03-08T13:06:36;92209.94;;;11.84
81319;BMP280;74078;48.420;14.828;2024-03-08T13:09:02;92209.78;;;12.08
81319;BMP280;74078;48.420;14.828;2024-03-08T13:11:32;92203.97;;;12.22
81319;BMP280;74078;48.420;14.828;2024-03-08T13:14:02;92205.94;;;11.63
81319;BMP280;74078;48.420;14.828;2024-03-08T13:16:29;92202.75;;;12.58
81319;BMP280;74078;48.420;14.828;2024-03-08T13:18:55;92205.88;;;12.93
81319;BMP280;74078;48.420;14.828;2024-03-08T13:21:22;92200.16;;;12.52
81319;BMP280;74078;48.420;14.828;2024-03-08T13:23:49;92206.97;;;11.86
81319;BMP280;74078;48.420;14.828;2024-03-08T13:26:14;92197.31;;;12.96
81319;BMP280;74078;48.420;14.828;2024-03-08T13:28:43;92199.41;;;13.54
81319;BMP280;74078;48.420;14.828;2024-03-08T13:31:08;92224.19;;;13.80
81319;BMP280;74078;48.420;14.828;2024-03-08T13:33:36;92226.28;;;14.29
81319;BMP280;74078;48.420;14.828;2024-03-08T13:36:03;92183.72;;;12.79
81319;BMP280;74078;48.420;14.828;2024-03-08T13:38:31;92304.53;;;14.15
81319;BMP280;74078;48.420;14.828;2024-03-08T13:40:58;92315.91;;;14.62
81319;BMP280;74078;48.420;14.828;2024-03-08T13:43:23;92320.47;;;12.76
81319;BMP280;74078;48.420;14.828;2024-03-08T13:45:49;92148.47;;;15.35
81319;BMP280;74078;48.420;14.828;2024-03-08T13:48:14;92164.84;;;11.21
81319;BMP280;74078;48.420;14.828;2024-03-08T13:50:40;92301.25;;;16.68
81319;BMP280;74078;48.420;14.828;2024-03-08T13:53:05;92309.66;;;16.63
81319;BMP280;74078;48.420;14.828;2024-03-08T13:55:30;92318.19;;;18.92
81319;BMP280;74078;48.420;14.828;2024-03-08T13:57:56;92304.97;;;15.76
81319;BMP280;74078;48.420;14.828;2024-03-08T14:00:22;92311.19;;;16.19
81319;BMP280;74078;48.420;14.828;2024-03-08T14:02:48;92252.31;;;18.03
81319;BMP280;74078;48.420;14.828;2024-03-08T14:05:13;92145.16;;;12.05
81319;BMP280;74078;48.420;14.828;2024-03-08T14:07:40;92304.44;;;11.42
81319;BMP280;74078;48.420;14.828;2024-03-08T14:10:05;92148.31;;;11.60
81319;BMP280;74078;48.420;14.828;2024-03-08T14:12:32;92312.13;;;13.73
81319;BMP280;74078;48.420;14.828;2024-03-08T14:14:57;92129.56;;;11.63
81319;BMP280;74078;48.420;14.828;2024-03-08T14:17:25;92197.41;;;9.84